Time;durP1;ratioP1;P1;durP2;ratioP2;P2;SDS_P1;SDS_P2;PMS_P1;PMS_P2;Temp;Humidity;BMP_temperature;BMP_pressure;BME280_temperature;BME280_humidity;BME280_pressure;Samples;Min_cycle;Max_cycle;Signal;HPM_P1;HPM_P2
2023/02/02 00:02:07;;;;;;;130.73;72.15;;;;;;;;;;5050991;28;20084;-68
2023/02/02 00:05:11;;;;;;;114.35;68.70;;;;;;;;;;5050634;28;20159;-68
2023/02/02 00:08:16;;;;;;;111.30;67.43;;;;;;;;;;5050572;28;20044;-69
2023/02/02 00:11:20;;;;;;;101.13;65.25;;;8.90;99.10;;;;;;5050477;28;20055;-68
2023/02/02 00:14:25;;;;;;;104.43;63.13;;;;;;;;;;5050505;28;20048;-68
2023/02/02 00:17:29;;;;;;;92.80;59.30;;;;;;;;;;5050719;28;20048;-68
2023/02/02 00:20:33;;;;;;;93.75;58.50;;;;;;;;;;5050430;28;20456;-68
2023/02/02 00:23:37;;;;;;;99.97;59.40;;;;;;;;;;5050237;28;20064;-67
2023/02/02 00:26:43;;;;;;;100.47;62.25;;;9.00;99.10;;;;;;5050418;28;20040;-67
2023/02/02 00:29:48;;;;;;;96.00;61.22;;;;;;;;;;5050376;28;20064;-68
2023/02/02 00:32:52;;;;;;;102.47;62.67;;;;;;;;;;5050219;28;20534;-69
2023/02/02 00:35:56;;;;;;;97.78;62.38;;;;;;;;;;5049455;28;20036;-68
2023/02/02 00:39:00;;;;;;;102.00;66.55;;;7.10;98.70;;;;;;5050363;28;20047;-68
2023/02/02 00:42:07;;;;;;;104.85;66.05;;;;;;;;;;5050091;28;20044;-69
2023/02/02 00:45:16;;;;;;;103.30;64.03;;;;;;;;;;5050380;28;20056;-68
2023/02/02 00:48:20;;;;;;;110.85;66.07;;;9.30;99.80;;;;;;5050249;28;20147;-68
2023/02/02 00:51:24;;;;;;;107.28;67.88;;;;;;;;;;5050192;28;20045;-68
2023/02/02 00:54:28;;;;;;;110.80;69.10;;;8.30;99.40;;;;;;5049705;28;20048;-68
2023/02/02 00:57:32;;;;;;;116.45;73.25;;;;;;;;;;5049982;28;20051;-68
2023/02/02 01:00:39;;;;;;;116.28;72.10;;;;;;;;;;5050252;28;20044;-68
2023/02/02 01:03:44;;;;;;;127.97;75.18;;;8.10;99.60;;;;;;5049880;28;20044;-68
2023/02/02 01:06:48;;;;;;;110.88;74.22;;;7.20;99.20;;;;;;5049839;28;20500;-69
2023/02/02 01:09:52;;;;;;;126.18;75.95;;;7.50;99.20;;;;;;5049985;28;20048;-68
2023/02/02 01:12:56;;;;;;;113.18;72.50;;;7.30;99.60;;;;;;5049108;28;20048;-68
2023/02/02 01:16:03;;;;;;;117.30;75.53;;;5.80;99.40;;;;;;5049767;28;20044;-68
2023/02/02 01:19:08;;;;;;;122.95;81.55;;;;;;;;;;5049608;28;20048;-68
2023/02/02 01:22:15;;;;;;;118.85;78.38;;;6.40;99.60;;;;;;5050250;28;20071;-68
2023/02/02 01:25:19;;;;;;;121.22;76.63;;;;;;;;;;5049394;28;20051;-68
2023/02/02 01:28:24;;;;;;;129.32;79.07;;;8.00;99.50;;;;;;5050260;28;20059;-68
2023/02/02 01:31:29;;;;;;;121.72;76.32;;;;;;;;;;5050420;28;20039;-68
2023/02/02 01:34:40;;;;;;;119.13;77.40;;;7.60;99.40;;;;;;5050381;28;20048;-69
2023/02/02 01:37:44;;;;;;;126.03;76.28;;;;;;;;;;5050341;28;20044;-68
2023/02/02 01:40:49;;;;;;;124.28;76.70;;;;;;;;;;5050008;28;20047;-68
2023/02/02 01:43:56;;;;;;;116.82;73.43;;;7.50;99.20;;;;;;5050187;28;20405;-68
2023/02/02 01:47:00;;;;;;;117.88;74.22;;;;;;;;;;5049961;28;20043;-69
2023/02/02 01:50:09;;;;;;;113.70;70.90;;;8.60;99.80;;;;;;5050149;28;20052;-68
2023/02/02 01:53:13;;;;;;;111.85;69.53;;;;;;;;;;5049282;28;20047;-69
2023/02/02 01:56:25;;;;;;;107.70;67.13;;;;;;;;;;5053646;28;20048;-68
2023/02/02 01:59:30;;;;;;;99.25;61.67;;;9.40;99.90;;;;;;5053014;28;20052;-68
2023/02/02 02:02:34;;;;;;;93.25;59.47;;;;;;;;;;5052590;28;20056;-68
2023/02/02 02:06:08;;;;;;;93.25;54.38;;;8.30;99.90;;;;;;5052456;28;20044;-68
2023/02/02 02:09:12;;;;;;;92.40;57.60;;;;;;;;;;5053132;28;20048;-68
2023/02/02 02:12:16;;;;;;;96.13;61.28;;;;;;;;;;5052887;28;20040;-68
2023/02/02 02:19:21;;;;;;;96.45;57.38;;;7.20;99.90;;;;;;5052471;28;20044;-68
2023/02/02 02:26:34;;;;;;;96.90;60.80;;;7.80;99.90;;;;;;5046012;28;20044;-68
2023/02/02 02:30:06;;;;;;;98.60;58.70;;;6.60;99.90;;;;;;5052111;28;20400;-68
2023/02/02 02:33:25;;;;;;;96.85;58.33;;;7.40;99.90;;;;;;5052233;28;20500;-67
2023/02/02 02:37:08;;;;;;;97.30;58.03;;;5.50;99.90;;;;;;5052337;28;20381;-67
2023/02/02 02:40:31;;;;;;;91.47;56.78;;;7.00;99.90;;;;;;5051265;28;20290;-67
2023/02/02 02:43:43;;;;;;;90.65;57.20;;;5.90;99.90;;;;;;5052020;28;20068;-68
2023/02/02 02:46:49;;;;;;;89.35;51.25;;;;;;;;;;5051669;28;20155;-69
2023/02/02 02:49:54;;;;;;;87.65;50.60;;;;;;;;;;5052012;28;20048;-68
2023/02/02 02:53:17;;;;;;;88.70;50.22;;;6.70;99.70;;;;;;5052426;28;20044;-69
2023/02/02 02:56:32;;;;;;;80.72;49.78;;;8.70;99.90;;;;;;5051833;28;20048;-68
2023/02/02 02:59:36;;;;;;;78.20;51.47;;;7.50;99.70;;;;;;5051615;28;20044;-68
2023/02/02 03:02:47;;;;;;;91.45;53.85;;;7.50;99.80;;;;;;5051957;28;20044;-68
2023/02/02 03:06:11;;;;;;;98.35;57.47;;;7.40;99.80;;;;;;5051621;28;20056;-69
2023/02/02 03:09:21;;;;;;;90.57;59.65;;;7.30;99.90;;;;;;5052493;28;20052;-68
2023/02/02 03:12:26;;;;;;;97.37;61.77;;;;;;;;;;5051666;28;20048;-68
2023/02/02 03:15:31;;;;;;;102.13;63.83;;;;;;;;;;5052286;28;20274;-68
2023/02/02 03:18:35;;;;;;;98.05;62.60;;;7.30;99.90;;;;;;5051854;28;20052;-69
2023/02/02 03:21:39;;;;;;;98.22;62.88;;;;;;;;;;5051749;28;20032;-69
2023/02/02 03:24:44;;;;;;;111.60;66.03;;;;;;;;;;5051951;28;20056;-68
2023/02/02 03:27:49;;;;;;;92.68;60.92;;;;;;;;;;5051894;28;20390;-69
2023/02/02 03:30:54;;;;;;;95.32;60.22;;;8.10;99.90;;;;;;5051664;28;20048;-69
2023/02/02 03:33:58;;;;;;;103.85;64.13;;;;;;;;;;5051824;28;20128;-68
2023/02/02 03:37:03;;;;;;;96.13;62.72;;;;;;;;;;5050900;28;20048;-67
2023/02/02 03:40:08;;;;;;;97.45;64.68;;;8.60;99.90;;;;;;5051648;28;20405;-68
2023/02/02 03:43:12;;;;;;;98.70;63.75;;;;;;;;;;5051580;28;20032;-68
2023/02/02 03:46:17;;;;;;;98.63;63.60;;;;;;;;;;5051670;28;20043;-68
2023/02/02 03:49:21;;;;;;;103.47;65.45;;;;;;;;;;5051806;28;20036;-67
2023/02/02 03:52:25;;;;;;;97.20;59.92;;;;;;;;;;5051159;28;20040;-68
2023/02/02 03:55:31;;;;;;;101.10;64.00;;;;;;;;;;5051417;28;20044;-68
2023/02/02 03:58:35;;;;;;;89.90;57.63;;;;;;;;;;5051566;28;20048;-68
2023/02/02 04:01:39;;;;;;;92.80;56.28;;;;;;;;;;5051169;28;20064;-68
2023/02/02 04:04:43;;;;;;;95.22;59.88;;;6.30;99.90;;;;;;5051375;28;20056;-68
2023/02/02 04:07:48;;;;;;;92.22;58.17;;;;;;;;;;5051129;28;20521;-68
2023/02/02 04:10:52;;;;;;;92.70;59.00;;;;;;;;;;5050864;28;20048;-68
2023/02/02 04:13:56;;;;;;;96.90;58.85;;;5.40;99.90;;;;;;5050963;28;20044;-67
2023/02/02 04:17:00;;;;;;;85.50;57.22;;;7.00;99.90;;;;;;5050943;28;20388;-68
2023/02/02 04:20:05;;;;;;;96.68;59.60;;;6.90;99.90;;;;;;5050978;28;20040;-68
2023/02/02 04:23:09;;;;;;;89.85;58.92;;;6.40;99.90;;;;;;5051131;28;20108;-69
2023/02/02 04:26:13;;;;;;;88.50;58.25;;;;;;;;;;5051066;28;20048;-68
2023/02/02 04:29:18;;;;;;;90.13;57.10;;;;;;;;;;5051206;28;20055;-68
2023/02/02 04:32:23;;;;;;;80.93;53.28;;;;;;;;;;5051038;28;20048;-68
2023/02/02 04:35:27;;;;;;;81.10;50.75;;;;;;;;;;5050688;28;20035;-68
2023/02/02 04:38:32;;;;;;;81.38;49.00;;;;;;;;;;5050680;28;20048;-68
2023/02/02 04:41:36;;;;;;;82.47;49.90;;;;;;;;;;5050637;28;20044;-68
2023/02/02 04:44:40;;;;;;;76.05;46.60;;;;;;;;;;5050456;28;20048;-68
2023/02/02 04:47:45;;;;;;;73.60;46.78;;;;;;;;;;5050453;28;20040;-68
2023/02/02 04:51:00;;;;;;;68.78;45.78;;;6.90;99.90;;;;;;5050596;28;20063;-68
2023/02/02 04:54:05;;;;;;;80.32;50.97;;;8.70;99.90;;;;;;5050860;28;20048;-68
2023/02/02 04:57:09;;;;;;;75.18;46.58;;;;;;;;;;5050649;28;20044;-67
2023/02/02 05:00:14;;;;;;;79.93;47.83;;;9.50;99.90;;;;;;5050750;28;20047;-68
2023/02/02 05:03:18;;;;;;;82.70;51.55;;;;;;;;;;5050428;28;20048;-68
2023/02/02 05:06:22;;;;;;;75.97;50.95;;;;;;;;;;5050544;28;20052;-68
2023/02/02 05:09:27;;;;;;;85.22;49.47;;;;;;;;;;5050599;28;20044;-67
2023/02/02 05:12:31;;;;;;;78.60;50.10;;;;;;;;;;5049501;28;20052;-67
2023/02/02 05:15:35;;;;;;;80.35;50.00;;;;;;;;;;5049597;28;20056;-67
2023/02/02 05:18:40;;;;;;;75.47;48.22;;;;;;;;;;5050242;28;20448;-67
2023/02/02 05:21:46;;;;;;;81.22;49.42;;;;;;;;;;5050250;28;20468;-67
2023/02/02 05:24:50;;;;;;;81.32;49.70;;;;;;;;;;5049915;28;20052;-67
2023/02/02 05:27:55;;;;;;;85.68;51.58;;;;;;;;;;5050052;28;20389;-68
2023/02/02 05:30:59;;;;;;;87.47;51.55;;;;;;;;;;5054006;28;20048;-67
2023/02/02 05:34:05;;;;;;;80.20;49.13;;;;;;;;;;5054193;28;20044;-68
2023/02/02 05:37:09;;;;;;;76.32;46.70;;;;;;;;;;5054189;28;20063;-68
2023/02/02 05:40:14;;;;;;;69.65;43.00;;;;;;;;;;5054214;28;20128;-68
2023/02/02 05:43:18;;;;;;;72.68;41.53;;;;;;;;;;5053725;28;20052;-68
2023/02/02 05:46:23;;;;;;;68.93;42.17;;;;;;;;;;5054115;28;20507;-68
2023/02/02 05:49:27;;;;;;;66.78;40.25;;;6.90;99.90;;;;;;5053995;28;20048;-67
2023/02/02 05:52:33;;;;;;;57.75;36.72;;;6.30;99.90;;;;;;5053806;28;20052;-68
2023/02/02 05:55:39;;;;;;;61.88;35.55;;;;;;;;;;5053817;28;20503;-68
2023/02/02 05:58:46;;;;;;;55.50;35.25;;;;;;;;;;5053645;28;20063;-68
2023/02/02 06:01:50;;;;;;;55.53;34.20;;;;;;;;;;5053470;28;20040;-70
2023/02/02 06:04:58;;;;;;;57.10;35.85;;;;;;;;;;5052629;28;20059;-69
2023/02/02 06:08:02;;;;;;;64.03;36.33;;;7.60;99.90;;;;;;5052505;28;20048;-68
2023/02/02 06:11:14;;;;;;;62.47;37.67;;;7.00;99.90;;;;;;5053369;28;20637;-69
2023/02/02 06:14:19;;;;;;;62.60;36.88;;;;;;;;;;5053174;28;20056;-68
2023/02/02 06:17:24;;;;;;;65.65;37.55;;;;;;;;;;5052988;28;20036;-69
2023/02/02 06:20:28;;;;;;;76.13;38.78;;;;;;;;;;5052989;28;20059;-69
2023/02/02 06:23:33;;;;;;;66.57;40.47;;;;;;;;;;5052833;28;20389;-68
2023/02/02 06:26:38;;;;;;;71.10;39.13;;;;;;;;;;5053110;28;20043;-68
2023/02/02 06:29:42;;;;;;;81.03;43.25;;;;;;;;;;5052987;28;20044;-73
2023/02/02 06:32:46;;;;;;;80.85;41.88;;;;;;;;;;5052732;28;20044;-67
2023/02/02 06:35:51;;;;;;;70.70;40.50;;;;;;;;;;5052935;28;20048;-69
2023/02/02 06:38:56;;;;;;;59.05;37.25;;;;;;;;;;5053140;28;20498;-70
2023/02/02 06:42:01;;;;;;;77.30;43.17;;;;;;;;;;5051607;28;20052;-68
2023/02/02 06:45:05;;;;;;;81.57;48.25;;;;;;;;;;5052623;28;20052;-69
2023/02/02 06:48:10;;;;;;;77.10;47.60;;;;;;;;;;5052153;28;20048;-68
2023/02/02 06:51:14;;;;;;;85.22;46.60;;;;;;;;;;5052484;28;20115;-68
2023/02/02 06:54:18;;;;;;;82.78;45.17;;;;;;;;;;5053091;28;20044;-67
2023/02/02 06:57:23;;;;;;;72.05;42.28;;;;;;;;;;5052565;28;20191;-69
2023/02/02 07:00:28;;;;;;;70.95;40.10;;;6.70;99.90;;;;;;5051314;28;20059;-67
2023/02/02 07:03:33;;;;;;;67.05;37.72;;;;;;;;;;5052334;28;20056;-68
2023/02/02 07:06:38;;;;;;;65.10;42.22;;;;;;;;;;5052576;28;20056;-68
2023/02/02 07:09:42;;;;;;;71.80;41.80;;;;;;;;;;5052313;28;20036;-69
2023/02/02 07:12:47;;;;;;;73.20;39.92;;;;;;;;;;5052059;28;20063;-69
2023/02/02 07:15:53;;;;;;;64.20;38.03;;;9.80;99.90;;;;;;5051703;28;20048;-70
2023/02/02 07:18:57;;;;;;;71.00;40.63;;;;;;;;;;5052269;28;20106;-70
2023/02/02 07:22:01;;;;;;;74.72;42.70;;;8.70;99.90;;;;;;5052301;28;20476;-69
2023/02/02 07:25:07;;;;;;;64.97;39.30;;;7.60;99.90;;;;;;5051999;28;20116;-71
2023/02/02 07:28:11;;;;;;;63.53;37.88;;;8.50;99.90;;;;;;5052227;28;20047;-70
2023/02/02 07:31:17;;;;;;;76.55;39.00;;;8.50;99.70;;;;;;5052303;28;20052;-71
2023/02/02 07:34:21;;;;;;;61.85;33.60;;;7.80;98.90;;;;;;5051055;28;20044;-69
2023/02/02 07:37:26;;;;;;;72.50;37.20;;;;;;;;;;5051646;28;20052;-71
2023/02/02 07:40:30;;;;;;;64.47;35.15;;;9.30;97.90;;;;;;5051934;28;20048;-71
2023/02/02 07:43:34;;;;;;;54.28;31.08;;;10.20;97.40;;;;;;5051829;28;20044;-70
2023/02/02 07:46:39;;;;;;;47.42;28.92;;;9.70;97.00;;;;;;5052078;28;20613;-69
2023/02/02 07:49:44;;;;;;;46.95;28.65;;;9.90;96.80;;;;;;5051803;28;20390;-70
2023/02/02 07:52:49;;;;;;;52.28;28.55;;;;;;;;;;5050314;28;20048;-69
2023/02/02 07:55:53;;;;;;;54.35;28.23;;;10.40;95.80;;;;;;5051070;28;20103;-69
2023/02/02 07:58:57;;;;;;;58.55;29.42;;;;;;;;;;5051791;28;20506;-70
2023/02/02 08:02:02;;;;;;;53.08;28.65;;;;;;;;;;5051320;28;20226;-71
2023/02/02 08:05:06;;;;;;;39.72;24.50;;;10.40;95.20;;;;;;5050172;28;20519;-70
2023/02/02 08:08:10;;;;;;;42.97;23.65;;;11.20;95.30;;;;;;5051671;28;20052;-71
2023/02/02 08:11:17;;;;;;;45.67;24.48;;;11.70;95.40;;;;;;5051010;28;20040;-72
2023/02/02 08:14:21;;;;;;;39.70;22.08;;;10.60;94.50;;;;;;5050308;28;20052;-71
2023/02/02 08:17:26;;;;;;;38.58;21.02;;;10.30;93.80;;;;;;5053730;28;20048;-70
2023/02/02 08:20:30;;;;;;;34.47;20.40;;;;;;;;;;5054155;28;20087;-71
2023/02/02 08:23:35;;;;;;;39.20;19.73;;;11.70;93.50;;;;;;5051840;28;20040;-69
2023/02/02 08:26:39;;;;;;;39.88;19.35;;;11.70;93.00;;;;;;5051141;28;20064;-68
2023/02/02 08:29:44;;;;;;;28.17;18.45;;;;;;;;;;5050034;28;20036;-67
2023/02/02 08:32:49;;;;;;;30.50;16.40;;;;;;;;;;5050952;28;20044;-71
2023/02/02 08:35:54;;;;;;;28.42;16.30;;;12.30;92.60;;;;;;5051137;28;20389;-70
2023/02/02 08:39:06;;;;;;;29.00;15.73;;;12.40;92.50;;;;;;5050970;28;20055;-70
2023/02/02 08:42:10;;;;;;;29.73;15.43;;;12.80;92.30;;;;;;5050924;28;20400;-74
2023/02/02 08:45:14;;;;;;;21.98;12.38;;;;;;;;;;5050942;28;20048;-73
2023/02/02 08:48:20;;;;;;;21.00;11.80;;;12.90;91.60;;;;;;5051769;28;20047;-73
2023/02/02 08:51:24;;;;;;;26.20;11.52;;;13.00;91.20;;;;;;5051095;28;20044;-70
2023/02/02 08:54:29;;;;;;;24.15;13.25;;;13.20;91.10;;;;;;5050665;28;20067;-72
2023/02/02 08:57:33;;;;;;;24.50;13.40;;;;;;;;;;5052139;28;20473;-72
2023/02/02 09:00:37;;;;;;;30.27;12.90;;;;;;;;;;5052378;28;20072;-70
2023/02/02 09:03:41;;;;;;;23.27;11.50;;;;;;;;;;5050509;28;20052;-71
2023/02/02 09:06:46;;;;;;;22.08;9.48;;;14.10;91.30;;;;;;5054616;28;20397;-69
2023/02/02 09:09:51;;;;;;;18.30;9.18;;;;;;;;;;5055185;28;20056;-71
2023/02/02 09:12:55;;;;;;;19.33;10.15;;;;;;;;;;5054440;28;20048;-72
2023/02/02 09:16:00;;;;;;;19.65;11.73;;;13.40;91.00;;;;;;5054633;28;20396;-72
2023/02/02 09:19:05;;;;;;;20.05;9.98;;;13.60;90.90;;;;;;5054430;28;20500;-71
2023/02/02 09:22:09;;;;;;;21.33;11.30;;;;;;;;;;5053259;28;20052;-70
2023/02/02 09:25:14;;;;;;;24.55;10.45;;;14.30;90.20;;;;;;5054400;28;20052;-71
2023/02/02 09:28:19;;;;;;;19.73;11.80;;;;;;;;;;5054282;28;20044;-69
2023/02/02 09:31:24;;;;;;;23.38;11.15;;;14.40;90.20;;;;;;5053636;28;20044;-72
2023/02/02 09:34:28;;;;;;;16.48;10.43;;;14.40;90.50;;;;;;5053594;28;20067;-70
2023/02/02 09:37:35;;;;;;;21.63;9.50;;;14.70;90.40;;;;;;5054349;28;20036;-69
2023/02/02 09:40:40;;;;;;;16.92;8.50;;;14.90;88.90;;;;;;5053937;28;20543;-71
2023/02/02 09:43:59;;;;;;;13.85;7.95;;;15.00;88.10;;;;;;5055080;28;20060;-70
2023/02/02 09:47:31;;;;;;;14.20;8.48;;;15.20;88.20;;;;;;5052975;28;20052;-71
2023/02/02 09:50:35;;;;;;;22.40;8.77;;;15.30;87.10;;;;;;5054064;28;20048;-72
2023/02/02 09:53:42;;;;;;;20.83;8.43;;;16.30;86.70;;;;;;5053639;28;20369;-72
2023/02/02 09:56:50;;;;;;;17.98;7.40;;;15.50;86.30;;;;;;5053977;28;20361;-71
2023/02/02 09:59:55;;;;;;;15.13;7.32;;;15.60;86.70;;;;;;5054110;28;20040;-74
2023/02/02 10:03:25;;;;;;;12.70;5.70;;;15.70;84.80;;;;;;5053453;28;20052;-72
2023/02/02 10:06:39;;;;;;;17.83;6.93;;;15.10;84.20;;;;;;5054676;28;20056;-70
2023/02/02 10:09:54;;;;;;;15.15;6.10;;;16.10;83.70;;;;;;5053253;28;20523;-70
2023/02/02 10:13:29;;;;;;;21.50;6.57;;;16.50;82.20;;;;;;5053187;28;20056;-69
2023/02/02 10:16:38;;;;;;;16.65;7.40;;;16.60;81.30;;;;;;5053263;28;20397;-69
2023/02/02 10:19:43;;;;;;;16.30;4.78;;;16.50;81.60;;;;;;5053378;28;20044;-68
2023/02/02 10:22:48;;;;;;;15.90;4.38;;;16.60;80.70;;;;;;5053367;28;20052;-70
2023/02/02 10:26:16;;;;;;;10.77;4.55;;;16.60;78.60;;;;;;5053002;28;20436;-72
2023/02/02 10:29:30;;;;;;;12.00;4.35;;;16.70;78.60;;;;;;5053332;28;20068;-73
2023/02/02 10:32:47;;;;;;;13.20;4.70;;;16.70;76.90;;;;;;5053223;28;20044;-73
2023/02/02 10:36:09;;;;;;;14.63;5.55;;;16.70;76.80;;;;;;5053742;28;20385;-73
2023/02/02 10:39:13;;;;;;;11.90;4.88;;;16.70;78.10;;;;;;5054136;28;20496;-73
2023/02/02 10:43:44;;;;;;;13.27;4.85;;;16.70;77.10;;;;;;5053059;28;20048;-72
2023/02/02 10:46:16;;;;;;;10.43;4.20;;;16.90;77.00;;;;;;5053184;28;20048;-73
2023/02/02 10:49:23;;;;;;;15.85;4.95;;;16.90;77.60;;;;;;5052670;28;20032;-73
2023/02/02 10:52:35;;;;;;;14.90;4.10;;;17.10;77.40;;;;;;5052968;28;20052;-72
2023/02/02 10:55:46;;;;;;;9.05;3.67;;;17.10;75.50;;;;;;5054420;28;20500;-72
2023/02/02 10:59:00;;;;;;;10.30;3.55;;;17.00;74.70;;;;;;5052216;28;20059;-72
2023/02/02 11:02:10;;;;;;;6.68;2.25;;;17.00;74.10;;;;;;5053100;28;20056;-71
2023/02/02 11:08:55;;;;;;;4.95;2.42;;;16.80;73.40;;;;;;5052928;28;20052;-70
2023/02/02 11:12:14;;;;;;;10.68;2.83;;;16.80;74.30;;;;;;5053004;28;20044;-69
2023/02/02 11:15:28;;;;;;;6.57;2.40;;;16.70;73.30;;;;;;5052990;28;20059;-71
2023/02/02 11:18:32;;;;;;;7.72;2.45;;;16.70;74.00;;;;;;5052777;28;20424;-72
2023/02/02 11:21:37;;;;;;;7.18;2.75;;;16.80;74.50;;;;;;5052134;28;20048;-70
2023/02/02 11:24:46;;;;;;;10.88;3.30;;;16.80;72.90;;;;;;5051962;28;20063;-70
2023/02/02 11:27:51;;;;;;;6.18;2.78;;;16.80;73.50;;;;;;5053337;28;20435;-74
2023/02/02 11:30:57;;;;;;;12.60;3.15;;;16.70;72.90;;;;;;5052315;28;20405;-71
2023/02/02 11:34:15;;;;;;;6.60;2.88;;;16.70;73.00;;;;;;5052989;28;20055;-70
2023/02/02 11:37:23;;;;;;;9.05;2.95;;;16.60;74.10;;;;;;5052604;28;20507;-70
2023/02/02 11:40:32;;;;;;;9.80;2.72;;;17.20;73.20;;;;;;5053041;28;20040;-73
2023/02/02 11:43:50;;;;;;;8.23;3.20;;;16.50;73.40;;;;;;5052824;28;20448;-72
2023/02/02 11:46:56;;;;;;;8.13;2.70;;;16.40;73.80;;;;;;5051864;28;20060;-72
2023/02/02 11:50:03;;;;;;;8.70;3.67;;;16.40;74.50;;;;;;5052225;28;20055;-72
2023/02/02 11:53:24;;;;;;;12.02;4.43;;;16.30;74.10;;;;;;5051446;28;20048;-71
2023/02/02 11:56:28;;;;;;;9.50;3.70;;;16.30;75.00;;;;;;5052463;28;20052;-71
2023/02/02 11:59:40;;;;;;;9.00;3.53;;;16.30;75.60;;;;;;5052177;28;20048;-72
2023/02/02 12:02:48;;;;;;;9.75;4.60;;;16.20;73.80;;;;;;5052204;28;20040;-70
2023/02/02 12:05:53;;;;;;;8.57;4.28;;;16.20;74.80;;;;;;5049957;28;20409;-72
2023/02/02 12:09:12;;;;;;;12.75;4.50;;;16.10;75.40;;;;;;5050608;28;20040;-72
2023/02/02 12:12:29;;;;;;;7.67;3.77;;;16.10;74.70;;;;;;5050860;28;20052;-73
2023/02/02 12:15:46;;;;;;;10.50;4.70;;;16.10;75.50;;;;;;5052461;28;20187;-72
2023/02/02 12:19:18;;;;;;;8.13;4.13;;;16.00;75.10;;;;;;5051405;28;20043;-71
2023/02/02 12:22:56;;;;;;;9.15;4.10;;;16.00;75.40;;;;;;5052072;28;20496;-70
2023/02/02 12:26:03;;;;;;;10.95;4.28;;;16.00;76.00;;;;;;5050814;28;20052;-69
2023/02/02 12:29:37;;;;;;;12.18;4.72;;;16.00;76.10;;;;;;5051094;28;20040;-69
2023/02/02 12:33:08;;;;;;;15.05;6.00;;;16.00;75.60;;;;;;5049851;28;20039;-69
2023/02/02 12:36:24;;;;;;;17.30;5.85;;;16.00;76.20;;;;;;5051488;28;20056;-70
2023/02/02 12:40:06;;;;;;;13.02;5.47;;;15.90;75.60;;;;;;5050650;28;20394;-70
2023/02/02 12:43:28;;;;;;;10.07;5.00;;;15.90;76.10;;;;;;5048567;28;20047;-70
2023/02/02 12:46:58;;;;;;;11.93;4.97;;;15.90;76.70;;;;;;5050806;28;20048;-70
2023/02/02 12:50:19;;;;;;;9.52;4.57;;;15.90;76.20;;;;;;5050748;28;20044;-72
2023/02/02 12:53:45;;;;;;;12.70;5.43;;;15.80;75.80;;;;;;5038917;28;20389;-69
2023/02/02 12:57:23;;;;;;;11.90;4.97;;;15.80;76.00;;;;;;5050497;28;20044;-69
2023/02/02 13:00:27;;;;;;;10.57;5.45;;;15.80;76.50;;;;;;5051287;28;20515;-72
2023/02/02 13:03:58;;;;;;;11.80;5.30;;;15.70;76.30;;;;;;5050552;28;20052;-70
2023/02/02 13:07:32;;;;;;;11.13;4.82;;;15.70;76.20;;;;;;5050034;28;20511;-71
2023/02/02 13:10:41;;;;;;;17.38;7.72;;;15.60;76.50;;;;;;5027821;28;20698;-69
2023/02/02 13:13:45;;;;;;;17.20;7.03;;;15.60;75.70;;;;;;5049780;28;20075;-71
2023/02/02 13:16:53;;;;;;;14.23;6.43;;;15.60;75.80;;;;;;5051405;28;20044;-70
2023/02/02 13:20:06;;;;;;;14.32;5.25;;;15.50;76.00;;;;;;5050988;28;20048;-71
2023/02/02 13:23:35;;;;;;;13.88;6.53;;;15.50;76.20;;;;;;5050962;28;20040;-76
2023/02/02 13:26:44;;;;;;;17.63;7.25;;;15.50;77.20;;;;;;5051205;28;20138;-71
2023/02/02 13:30:07;;;;;;;10.05;5.65;;;15.50;75.80;;;;;;5050638;28;20377;-72
2023/02/02 13:33:28;;;;;;;10.38;6.28;;;15.50;76.50;;;;;;5051022;28;20067;-73
2023/02/02 13:36:37;;;;;;;17.60;7.97;;;15.50;76.90;;;;;;5051874;28;20036;-73
2023/02/02 13:39:48;;;;;;;22.20;7.55;;;15.40;76.90;;;;;;5051970;28;20039;-76
2023/02/02 13:43:25;;;;;;;17.65;7.55;;;15.40;77.40;;;;;;5051578;28;20392;-72
2023/02/02 13:46:44;;;;;;;17.30;8.77;;;15.40;77.60;;;;;;5050319;28;20048;-71
2023/02/02 13:49:54;;;;;;;16.33;8.05;;;15.40;78.20;;;;;;5050823;28;20518;-69
2023/02/02 13:53:28;;;;;;;17.65;7.60;;;15.30;77.40;;;;;;5054263;28;20048;-70
2023/02/02 13:56:45;;;;;;;17.38;6.50;;;15.30;78.00;;;;;;5054086;28;20056;-71
2023/02/02 14:00:27;;;;;;;12.32;6.85;;;15.30;79.50;;;;;;5053409;28;20095;-71
2023/02/02 14:03:41;;;;;;;23.33;9.15;;;15.30;79.10;;;;;;5054064;28;20044;-71
2023/02/02 14:06:58;;;;;;;20.13;8.07;;;15.30;78.00;;;;;;5053791;28;20060;-69
2023/02/02 14:10:05;;;;;;;16.98;7.50;;;15.20;77.90;;;;;;5051742;28;20059;-73
2023/02/02 14:16:34;;;;;;;16.60;7.35;;;15.10;77.00;;;;;;5053945;28;20040;-72
2023/02/02 14:19:39;;;;;;;17.13;5.93;;;15.10;78.40;;;;;;5054504;28;20048;-71
2023/02/02 14:22:46;;;;;;;14.35;5.47;;;15.10;79.50;;;;;;5053303;28;20068;-73
2023/02/02 14:26:04;;;;;;;16.13;5.20;;;15.10;79.70;;;;;;5052919;28;20047;-70
2023/02/02 14:29:34;;;;;;;11.55;5.53;;;15.00;77.50;;;;;;5053712;28;20385;-72
2023/02/02 14:32:41;;;;;;;9.00;5.10;;;15.00;77.90;;;;;;5041341;28;20059;-70
2023/02/02 14:35:46;;;;;;;13.65;5.78;;;15.00;78.70;;;;;;5053518;28;20060;-69
2023/02/02 14:38:54;;;;;;;18.83;6.10;;;15.00;80.20;;;;;;5053788;28;20040;-71
2023/02/02 14:46:11;;;;;;;13.43;4.63;;;15.00;81.50;;;;;;5053451;28;20056;-71
2023/02/02 14:49:22;;;;;;;15.05;4.05;;;15.00;81.60;;;;;;5052403;28;20036;-70
2023/02/02 14:52:26;;;;;;;14.27;4.30;;;15.00;81.30;;;;;;5053555;28;20047;-72
2023/02/02 14:55:31;;;;;;;10.80;4.78;;;14.90;81.20;;;;;;5053066;28;20048;-73
2023/02/02 14:58:51;;;;;;;9.73;4.13;;;14.90;81.70;;;;;;5052327;28;20048;-72
2023/02/02 15:02:17;;;;;;;12.35;4.15;;;14.90;81.70;;;;;;5050827;28;20044;-72
2023/02/02 15:05:33;;;;;;;10.52;4.00;;;14.90;81.70;;;;;;5052807;28;20052;-71
2023/02/02 15:08:37;;;;;;;15.30;5.10;;;14.90;82.50;;;;;;5052894;28;20604;-72
2023/02/02 15:12:05;;;;;;;12.30;4.53;;;14.80;82.30;;;;;;5053434;28;20040;-72
2023/02/02 15:15:26;;;;;;;9.75;3.80;;;14.80;82.00;;;;;;5051931;28;20051;-71
2023/02/02 15:18:39;;;;;;;22.75;6.97;;;14.80;82.00;;;;;;5052401;28;20052;-72
2023/02/02 15:21:48;;;;;;;22.40;7.72;;;14.70;82.00;;;;;;5053052;28;20511;-73
2023/02/02 15:24:53;;;;;;;10.80;5.30;;;14.60;81.10;;;;;;5052824;28;20456;-73
2023/02/02 15:28:18;;;;;;;12.07;5.35;;;14.60;81.70;;;;;;5052867;28;20056;-72
2023/02/02 15:31:50;;;;;;;20.77;5.82;;;14.60;81.40;;;;;;5053100;28;20044;-72
2023/02/02 15:35:02;;;;;;;17.05;5.53;;;12.20;80.20;;;;;;5052787;28;20432;-72
2023/02/02 15:38:14;;;;;;;15.77;6.07;;;14.40;82.10;;;;;;5051869;28;20040;-73
2023/02/02 15:41:31;;;;;;;17.35;6.03;;;14.30;82.30;;;;;;5052375;28;20052;-71
2023/02/02 15:44:36;;;;;;;19.77;6.72;;;14.20;83.30;;;;;;5051810;28;20048;-74
2023/02/02 15:47:41;;;;;;;17.90;6.10;;;14.10;82.20;;;;;;5051876;28;20048;-73
2023/02/02 15:50:47;;;;;;;17.60;6.00;;;14.10;82.70;;;;;;5051149;28;20047;-73
2023/02/02 15:53:51;;;;;;;19.95;6.25;;;14.00;83.80;;;;;;5051764;28;20076;-73
2023/02/02 15:57:00;;;;;;;22.05;7.22;;;13.90;83.80;;;;;;5051939;28;20060;-71
2023/02/02 16:00:36;;;;;;;19.95;7.88;;;13.90;84.70;;;;;;5051756;28;20048;-71
2023/02/02 16:03:45;;;;;;;24.67;7.57;;;;;;;;;;5049166;28;20679;-73
2023/02/02 16:06:49;;;;;;;22.23;7.22;;;13.70;85.10;;;;;;5050938;28;20056;-72
2023/02/02 16:09:53;;;;;;;17.55;7.55;;;13.70;84.90;;;;;;5050402;28;20048;-72
2023/02/02 16:12:57;;;;;;;17.95;7.22;;;12.70;85.40;;;;;;5051734;28;20066;-71
2023/02/02 16:16:05;;;;;;;23.55;7.68;;;13.70;85.50;;;;;;5051360;28;20044;-71
2023/02/02 16:19:19;;;;;;;21.35;7.07;;;13.50;86.40;;;;;;5050218;28;20048;-71
2023/02/02 16:22:24;;;;;;;28.20;8.70;;;13.50;87.00;;;;;;5050276;28;20060;-72
2023/02/02 16:25:38;;;;;;;22.20;8.48;;;13.40;86.30;;;;;;5050152;28;20052;-72
2023/02/02 16:28:42;;;;;;;28.70;13.23;;;13.30;87.30;;;;;;5051021;28;20048;-71
2023/02/02 16:31:47;;;;;;;24.25;8.35;;;13.30;87.40;;;;;;5051540;28;20040;-73
2023/02/02 16:34:52;;;;;;;30.67;9.02;;;;;;;;;;5051340;28;20511;-73
2023/02/02 16:38:36;;;;;;;23.52;9.65;;;12.80;87.70;;;;;;5051199;28;20040;-68
2023/02/02 16:41:40;;;;;;;38.87;10.53;;;;;;;;;;5051110;28;20044;-71
2023/02/02 16:44:45;;;;;;;32.22;10.75;;;;;;;;;;5050088;28;20040;-72
2023/02/02 16:47:51;;;;;;;39.08;14.13;;;12.90;88.90;;;;;;5050890;28;20060;-72
2023/02/02 16:51:16;;;;;;;35.88;14.98;;;12.90;89.10;;;;;;5048533;28;20563;-72
2023/02/02 16:54:21;;;;;;;36.13;16.60;;;;;;;;;;5049359;28;20590;-69
2023/02/02 16:57:31;;;;;;;31.55;15.15;;;11.30;88.90;;;;;;5049944;28;20040;-71
2023/02/02 17:00:36;;;;;;;30.92;14.23;;;14.00;90.30;;;;;;5049576;28;20040;-69
2023/02/02 17:03:50;;;;;;;36.47;16.92;;;11.80;89.80;;;;;;5049840;28;20048;-70
2023/02/02 17:07:03;;;;;;;42.78;19.17;;;12.60;90.20;;;;;;5050494;28;20420;-68
2023/02/02 17:10:22;;;;;;;32.42;17.33;;;12.60;90.30;;;;;;5050292;28;20044;-68
2023/02/02 17:13:35;;;;;;;28.20;15.68;;;12.50;90.40;;;;;;5050053;28;20068;-68